| Date | Temp | Humidity | Rainfall | Dew Point | Wind Direction | Wind Speed | Wind Pressure | Condition | Visibility |
|---|---|---|---|---|---|---|---|---|---|
| 2025-04-07 16:00:02 | 29 | 77 | 0.0 | 25 | 330 | 7.0 | 1008 | Thunderstorm | 10 KM |
| 2025-04-07 14:58:43 | 31 | 73 | 25 | 310 | 17.1 | 1009 | Fair | 20 KM | |
| 2025-04-07 14:00:19 | 31 | 73 | 0 | 25 | 320 | 17.1 | 1010 | Fair | 20 KM |
| 2025-04-07 12:59:56 | 31 | 71 | 25 | 300 | 17.1 | 1010 | Cloudy | 20 km | |
| 2025-04-07 11:59:44 | 31 | 70 | 25 | 350 | 11.4 | 1011 | Cloudy | 20 km | |
| 2025-04-07 11:00:59 | 31 | 64 | 0.00 | 24 | 140 | 7.6 | 1012 | Cloudy | 20 km |
| 2025-04-07 10:03:30 | 29 | 73 | 0.00 | 24 | 270 | 5.7 | 1013 | Partly Cloudy (Day) | 15 km |
| 2025-04-07 09:00:21 | 28 | 79 | 0.00 | 24 | 170 | 5.7 | 1012 | Partly Cloudy (Day) | 15 km |
| 2025-04-07 07:57:44 | 26 | 91 | 0.0 | 24 | 220 | 5.7 | 1012 | Partly Cloudy (Day) | 20 KM |
| 2025-04-07 06:57:02 | 25 | 95 | 0.0 | 24 | 210 | 7.6 | 1011 | Partly Cloudy (Day) | 10 KM |
| 2025-04-07 05:01:02 | 25 | 94 | 0.0 | 24 | 220 | 9.5 | 1010 | Partly Cloudy (Night) | 10 KM |
| 2025-04-07 04:00:30 | 25 | 93 | 0.0 | 24 | 230 | 5.7 | 1010 | Partly Cloudy (Night) | 10 KM |
| 2025-04-07 03:00:31 | 26 | 92 | 0.0 | 24 | 250 | 5.7 | 1009 | Partly Cloudy (Night) | 10 KM |
| 2025-04-07 02:00:00 | 26 | 91 | 24 | 210 | 1.9 | 1009 | Partly Cloudy (Night) | 10 km | |
| 2025-04-07 01:00:23 | 25 | 93 | 24 | 150 | 3.8 | 1010 | Partly Cloudy (Night) | 10 km | |
| 2025-04-06 23:59:43 | 26 | 91 | 24 | 230 | 5.7 | 1012 | Lightning | 10 KM | |
| 2025-04-06 22:59:33 | 26 | 88 | 24 | 230 | 5.7 | 1013 | Lightning | 10 KM | |
| 2025-04-06 21:59:29 | 26 | 89 | 24 | 210 | 7.6 | 1012 | Partly Cloudy (Night) | 10 KM | |
| 2025-04-06 20:57:58 | 27 | 89 | 0.00 | 25 | 160 | 7.6 | 1011 | Partly Cloudy (Night) | 10 km |
| 2025-04-06 19:59:28 | 28 | 88 | 0.0 | 26 | 120 | 9.5 | 1011 | Partly Cloudy (Night) | 10 km |
| 2025-04-06 18:59:49 | 28 | 85 | 0.00 | 26 | 040 | 11.4 | 1010 | Partly Cloudy (Day) | 10 km |
| 2025-04-06 17:58:54 | 29 | 81 | 0.00 | 26 | 020 | 11.4 | 1009 | Partly Cloudy (Day) | 10 km |
| 2025-04-06 17:01:13 | 29 | 83 | 0.00 | 25 | 320 | 17.1 | 1008 | Partly Cloudy (Day) | 15 km |
| 2025-04-06 16:00:33 | 29 | 82 | 0.00 | 26 | 350 | 13.3 | 1008 | Partly Cloudy (Day) | 15 km |
| 2025-04-06 15:00:38 | 29 | 80 | 0.00 | 25 | 300 | 17.1 | 1008 | Partly Cloudy (Day) | 15 km |